createdAt,value
2022-12-08T00:00:50.463Z,999.9
2022-12-08T00:03:50.449Z,1000
2022-12-08T00:06:50.449Z,1000
2022-12-08T00:09:50.448Z,1000
2022-12-08T00:12:50.469Z,999.9
2022-12-08T00:15:50.452Z,999.9
2022-12-08T00:18:50.485Z,999.9
2022-12-08T00:21:50.463Z,999.8
2022-12-08T00:24:50.463Z,999.8
2022-12-08T00:27:50.516Z,999.8
2022-12-08T00:30:50.468Z,999.8
2022-12-08T00:33:50.470Z,999.8
2022-12-08T00:36:50.499Z,999.7
2022-12-08T00:39:50.473Z,999.7
2022-12-08T00:42:50.480Z,999.7
2022-12-08T00:45:50.530Z,999.7
2022-12-08T00:48:50.490Z,999.7
2022-12-08T00:51:50.494Z,999.6
2022-12-08T00:54:50.534Z,999.6
2022-12-08T00:57:50.495Z,999.6
2022-12-08T01:00:50.542Z,999.6
2022-12-08T01:03:50.543Z,999.6
2022-12-08T01:06:50.497Z,999.6
2022-12-08T01:09:50.497Z,999.6
2022-12-08T01:12:50.523Z,999.6
2022-12-08T01:15:50.502Z,999.5
2022-12-08T01:18:50.507Z,999.6
2022-12-08T01:21:50.515Z,999.5
2022-12-08T01:24:50.532Z,999.5
2022-12-08T01:27:50.544Z,999.6
2022-12-08T01:30:50.610Z,999.6
2022-12-08T01:33:50.574Z,999.5
2022-12-08T01:36:50.593Z,999.5
2022-12-08T01:39:50.600Z,999.4
2022-12-08T01:42:50.615Z,999.4
2022-12-08T01:45:50.645Z,999.3
2022-12-08T01:48:50.655Z,999.4
2022-12-08T01:51:50.632Z,999.3
2022-12-08T01:54:50.636Z,999.4
2022-12-08T01:57:50.637Z,999.4
2022-12-08T02:00:50.647Z,999.4
2022-12-08T02:03:50.652Z,999.3
2022-12-08T02:06:50.680Z,999.2
2022-12-08T02:09:50.659Z,999.2
2022-12-08T02:12:50.669Z,999.1
2022-12-08T02:15:50.687Z,999.1
2022-12-08T02:19:08.208Z,999.1
2022-12-08T02:21:50.681Z,999
2022-12-08T02:24:50.719Z,999
2022-12-08T02:27:50.698Z,999.1
2022-12-08T02:30:50.735Z,999
2022-12-08T02:33:50.698Z,999
2022-12-08T02:36:50.711Z,999
2022-12-08T02:39:50.710Z,999
2022-12-08T02:42:50.743Z,999
2022-12-08T02:45:50.769Z,998.9
2022-12-08T02:48:50.728Z,998.9
2022-12-08T02:51:50.730Z,998.8
2022-12-08T02:54:50.737Z,998.9
2022-12-08T02:57:50.742Z,998.8
2022-12-08T03:00:50.772Z,998.8
2022-12-08T03:03:50.745Z,998.8
2022-12-08T03:06:50.751Z,998.7
2022-12-08T03:09:50.758Z,998.8
2022-12-08T03:12:50.763Z,998.8
2022-12-08T03:15:50.821Z,998.8
2022-12-08T03:18:50.798Z,998.8
2022-12-08T03:21:50.780Z,998.7
2022-12-08T03:24:50.792Z,998.7
2022-12-08T03:27:50.788Z,998.5
2022-12-08T03:30:50.850Z,998.5
2022-12-08T03:33:50.803Z,998.5
2022-12-08T03:36:50.825Z,998.4
2022-12-08T03:39:50.806Z,998.5
2022-12-08T03:42:50.807Z,998.4
2022-12-08T03:45:50.824Z,998.4
2022-12-08T03:48:50.819Z,998.4
2022-12-08T03:51:50.824Z,998.4
2022-12-08T03:54:50.865Z,998.3
2022-12-08T03:57:50.835Z,998.3
2022-12-08T04:00:50.838Z,998.3
2022-12-08T04:03:50.845Z,998.3
2022-12-08T04:06:50.851Z,998.2
2022-12-08T04:09:50.856Z,998.3
2022-12-08T04:12:50.889Z,998.2
2022-12-08T04:15:50.910Z,998.1
2022-12-08T04:18:50.879Z,998.1
2022-12-08T04:21:50.879Z,998.1
2022-12-08T04:24:50.877Z,998.1
2022-12-08T04:27:50.889Z,998
2022-12-08T04:30:50.919Z,998.1
2022-12-08T04:33:50.895Z,998
2022-12-08T04:36:50.901Z,997.9
2022-12-08T04:39:50.909Z,998
2022-12-08T04:42:50.910Z,998
2022-12-08T04:45:50.930Z,998
2022-12-08T04:48:51.003Z,998
2022-12-08T04:51:50.929Z,998
2022-12-08T04:54:50.994Z,998
2022-12-08T04:57:50.930Z,997.9
2022-12-08T05:00:51.006Z,997.8
2022-12-08T05:03:50.951Z,997.8
2022-12-08T05:06:50.970Z,997.8
2022-12-08T05:09:50.951Z,997.8
2022-12-08T05:12:50.960Z,997.8
2022-12-08T05:15:51.095Z,997.8
2022-12-08T05:18:50.972Z,997.8
2022-12-08T05:21:50.972Z,997.8
2022-12-08T05:24:51.013Z,997.9
2022-12-08T05:27:50.982Z,997.8
2022-12-08T05:30:51.012Z,997.8
2022-12-08T05:33:50.993Z,997.8
2022-12-08T05:36:50.996Z,997.7
2022-12-08T05:39:51.001Z,997.7
2022-12-08T05:42:51.035Z,997.7
2022-12-08T05:45:51.117Z,997.7
2022-12-08T05:48:51.015Z,997.7
2022-12-08T05:51:51.024Z,997.7
2022-12-08T05:54:51.024Z,997.6
2022-12-08T05:57:51.029Z,997.6
2022-12-08T06:00:51.062Z,997.6
2022-12-08T06:03:51.041Z,997.5
2022-12-08T06:06:51.048Z,997.5
2022-12-08T06:09:51.055Z,997.4
2022-12-08T06:12:51.059Z,997.4
2022-12-08T06:15:51.066Z,997.4
2022-12-08T06:18:51.101Z,997.4
2022-12-08T06:21:51.073Z,997.5
2022-12-08T06:24:51.080Z,997.5
2022-12-08T06:27:51.083Z,997.5
2022-12-08T06:30:51.088Z,997.4
2022-12-08T06:33:51.090Z,997.4
2022-12-08T06:36:51.122Z,997.4
2022-12-08T06:39:51.098Z,997.4
2022-12-08T06:42:51.112Z,997.5
2022-12-08T06:45:51.123Z,997.4
2022-12-08T06:48:51.117Z,997.4
2022-12-08T06:51:51.132Z,997.5
2022-12-08T06:54:51.150Z,997.4
2022-12-08T06:57:53.955Z,997.4
2022-12-08T07:00:51.251Z,997.4
2022-12-08T07:03:51.149Z,997.4
2022-12-08T07:06:51.153Z,997.4
2022-12-08T07:09:51.154Z,997.6
2022-12-08T07:12:51.186Z,997.6
2022-12-08T07:15:51.166Z,997.6
2022-12-08T07:18:51.169Z,997.6
2022-12-08T07:21:51.177Z,997.6
2022-12-08T07:24:51.177Z,997.6
2022-12-08T07:27:51.179Z,997.6
2022-12-08T07:30:51.352Z,997.6
2022-12-08T07:33:51.186Z,997.6
2022-12-08T07:36:51.197Z,997.6
2022-12-08T07:39:51.190Z,997.6
2022-12-08T07:42:51.204Z,997.5
2022-12-08T07:45:51.310Z,997.6
2022-12-08T07:48:51.237Z,997.5
2022-12-08T07:51:51.226Z,997.5
2022-12-08T07:54:51.229Z,997.4
2022-12-08T07:57:51.230Z,997.5
2022-12-08T08:00:51.292Z,997.5
2022-12-08T08:03:51.244Z,997.6
2022-12-08T08:06:51.336Z,997.6
2022-12-08T08:09:51.262Z,997.7
2022-12-08T08:12:51.348Z,997.7
2022-12-08T08:15:51.389Z,997.7
2022-12-08T08:18:51.275Z,997.7
2022-12-08T08:21:51.282Z,997.6
2022-12-08T08:24:51.314Z,997.6
2022-12-08T08:27:51.290Z,997.7
2022-12-08T08:30:51.342Z,997.7
2022-12-08T08:33:51.302Z,997.7
2022-12-08T08:36:51.339Z,997.8
2022-12-08T08:39:51.310Z,997.9
2022-12-08T08:42:51.333Z,997.8
2022-12-08T08:45:51.316Z,997.9
2022-12-08T08:48:51.319Z,998
2022-12-08T08:51:51.318Z,998
2022-12-08T08:54:51.327Z,998
2022-12-08T08:57:51.330Z,998
2022-12-08T09:00:51.366Z,998
2022-12-08T09:03:51.345Z,998
2022-12-08T09:06:51.348Z,998
2022-12-08T09:09:51.367Z,998
2022-12-08T09:12:51.381Z,998
2022-12-08T09:15:51.550Z,998
2022-12-08T09:18:51.408Z,998.1
2022-12-08T09:21:51.394Z,998.1
2022-12-08T09:24:51.397Z,998
2022-12-08T09:27:51.401Z,998
2022-12-08T09:30:51.446Z,998
2022-12-08T09:33:51.453Z,998.1
2022-12-08T09:36:51.444Z,998
2022-12-08T09:39:51.410Z,998
2022-12-08T09:42:51.423Z,998.1
2022-12-08T09:45:51.416Z,998.1
2022-12-08T09:48:51.418Z,998.1
2022-12-08T09:51:51.420Z,998
2022-12-08T09:54:51.462Z,998.1
2022-12-08T09:57:56.065Z,998
2022-12-08T10:00:51.422Z,998
2022-12-08T10:03:51.427Z,997.8
2022-12-08T10:06:51.424Z,998
2022-12-08T10:09:51.424Z,997.9
2022-12-08T10:12:51.449Z,997.9
2022-12-08T10:15:51.454Z,997.9
2022-12-08T10:18:51.431Z,997.9
2022-12-08T10:21:51.427Z,997.9
2022-12-08T10:24:51.430Z,997.8
2022-12-08T10:27:51.429Z,997.9
2022-12-08T10:30:51.461Z,997.9
2022-12-08T10:33:51.443Z,997.8
2022-12-08T10:36:51.438Z,997.8
2022-12-08T10:39:51.438Z,997.7
2022-12-08T10:42:51.443Z,997.7
2022-12-08T10:45:51.438Z,997.7
2022-12-08T10:48:51.466Z,997.7
2022-12-08T10:51:51.445Z,997.7
2022-12-08T10:54:51.438Z,997.6
2022-12-08T10:57:51.437Z,997.7
2022-12-08T11:00:51.534Z,997.6
2022-12-08T11:03:51.443Z,997.5
2022-12-08T11:06:51.472Z,997.5
2022-12-08T11:09:51.447Z,997.6
2022-12-08T11:12:51.474Z,997.6
2022-12-08T11:15:51.461Z,997.6
2022-12-08T11:18:51.472Z,997.6
2022-12-08T11:21:51.468Z,997.7
2022-12-08T11:24:51.501Z,997.6
2022-12-08T11:27:51.470Z,997.6
2022-12-08T11:30:51.479Z,997.6
2022-12-08T11:33:51.488Z,997.6
2022-12-08T11:36:51.485Z,997.6
2022-12-08T11:39:51.490Z,997.6
2022-12-08T11:42:51.519Z,997.5
2022-12-08T11:45:51.637Z,997.6
2022-12-08T11:48:51.499Z,997.5
2022-12-08T11:51:51.502Z,997.6
2022-12-08T11:54:51.503Z,997.6
2022-12-08T11:57:51.586Z,997.6
2022-12-08T12:00:51.538Z,997.6
2022-12-08T12:03:51.513Z,997.5
2022-12-08T12:06:55.502Z,997.6
2022-12-08T12:09:51.517Z,997.6
2022-12-08T12:12:51.523Z,997.5
2022-12-08T12:15:51.533Z,997.5
2022-12-08T12:18:51.562Z,997.5
2022-12-08T12:21:51.542Z,997.5
2022-12-08T12:24:51.546Z,997.5
2022-12-08T12:27:57.036Z,997.5
2022-12-08T12:30:51.622Z,997.5
2022-12-08T12:33:51.565Z,997.5
2022-12-08T12:36:51.597Z,997.5
2022-12-08T12:39:51.570Z,997.5
2022-12-08T12:42:51.577Z,997.5
2022-12-08T12:45:51.637Z,997.4
2022-12-08T12:48:51.585Z,997.5
2022-12-08T12:51:51.595Z,997.4
2022-12-08T12:54:51.628Z,997.4
2022-12-08T12:57:51.622Z,997.5
2022-12-08T13:00:51.616Z,997.4
2022-12-08T13:03:51.623Z,997.4
2022-12-08T13:06:51.628Z,997.5
2022-12-08T13:09:51.638Z,997.5
2022-12-08T13:12:51.671Z,997.5
2022-12-08T13:15:51.650Z,997.5
2022-12-08T13:18:51.657Z,997.6
2022-12-08T13:21:51.665Z,997.5
2022-12-08T13:24:51.676Z,997.5
2022-12-08T13:27:51.689Z,997.5
2022-12-08T13:30:51.784Z,997.7
2022-12-08T13:33:51.703Z,997.7
2022-12-08T13:36:51.707Z,997.7
2022-12-08T13:39:51.718Z,997.6
2022-12-08T13:42:51.730Z,997.6
2022-12-08T13:53:34.319Z,997.7
2022-12-08T13:55:58.987Z,997.7
2022-12-08T13:57:51.793Z,997.8
2022-12-08T14:00:51.760Z,997.8
2022-12-08T14:04:30.800Z,997.8
2022-12-08T14:06:51.795Z,997.8
2022-12-08T14:09:51.843Z,997.9
2022-12-08T14:12:51.785Z,997.9
2022-12-08T14:15:51.837Z,998
2022-12-08T14:18:51.791Z,997.9
2022-12-08T14:21:51.795Z,998
2022-12-08T14:24:51.826Z,998
2022-12-08T14:27:51.814Z,998.1
2022-12-08T14:30:51.859Z,998.1
2022-12-08T14:33:56.181Z,998.1
2022-12-08T14:36:51.818Z,998.1
2022-12-08T14:39:51.825Z,998
2022-12-08T14:42:51.855Z,998.1
2022-12-08T14:45:51.831Z,998.2
2022-12-08T14:48:51.835Z,998.2
2022-12-08T14:51:51.839Z,998.1
2022-12-08T14:54:51.846Z,998.2
2022-12-08T14:57:51.845Z,998.2
2022-12-08T15:00:51.879Z,998.2
2022-12-08T15:03:51.957Z,998.2
2022-12-08T15:06:51.855Z,998.3
2022-12-08T15:09:51.856Z,998.3
2022-12-08T15:12:51.861Z,998.3
2022-12-08T15:15:51.949Z,998.4
2022-12-08T15:18:51.894Z,998.4
2022-12-08T15:21:51.867Z,998.4
2022-12-08T15:24:51.868Z,998.4
2022-12-08T15:27:51.904Z,998.4
2022-12-08T15:30:51.926Z,998.4
2022-12-08T15:33:51.880Z,998.3
2022-12-08T15:36:51.901Z,998.4
2022-12-08T15:39:51.887Z,998.4
2022-12-08T15:42:51.892Z,998.5
2022-12-08T15:45:58.834Z,998.5
2022-12-08T15:48:56.545Z,998.5
2022-12-08T15:51:54.957Z,998.5
2022-12-08T15:54:51.955Z,998.5
2022-12-08T16:00:53.723Z,998.4
2022-12-08T16:07:22.069Z,998.4
2022-12-08T16:09:52.118Z,998.4
2022-12-08T16:15:59.554Z,998.5
2022-12-08T16:18:51.989Z,998.6
2022-12-08T16:22:30.077Z,998.7
2022-12-08T16:24:52.006Z,998.6
2022-12-08T16:28:29.839Z,998.5
2022-12-08T16:30:52.037Z,998.6
2022-12-08T16:33:52.020Z,998.5
2022-12-08T16:36:52.025Z,998.5
2022-12-08T16:39:52.061Z,998.5
2022-12-08T16:42:52.036Z,998.6
2022-12-08T16:45:52.044Z,998.6
2022-12-08T16:48:52.076Z,998.6
2022-12-08T16:51:52.055Z,998.6
2022-12-08T16:54:52.058Z,998.5
2022-12-08T16:57:52.061Z,998.7
2022-12-08T17:00:52.093Z,998.6
2022-12-08T17:04:14.661Z,998.7
2022-12-08T17:06:52.111Z,998.7
2022-12-08T17:09:52.080Z,998.8
2022-12-08T17:12:52.090Z,998.7
2022-12-08T17:15:52.090Z,998.7
2022-12-08T17:18:52.095Z,998.7
2022-12-08T17:21:52.100Z,998.6
2022-12-08T17:24:52.292Z,998.6
2022-12-08T17:27:52.103Z,998.7
2022-12-08T17:30:52.113Z,998.7
2022-12-08T17:33:52.110Z,998.7
2022-12-08T17:36:52.120Z,998.7
2022-12-08T17:39:52.124Z,998.8
2022-12-08T17:42:52.159Z,998.8
2022-12-08T17:45:52.216Z,998.8
2022-12-08T17:48:52.140Z,998.9
2022-12-08T17:51:52.142Z,998.9
2022-12-08T17:54:52.151Z,998.9
2022-12-08T17:57:52.160Z,998.8
2022-12-08T18:00:52.206Z,998.9
2022-12-08T18:03:52.188Z,998.9
2022-12-08T18:06:52.174Z,998.9
2022-12-08T18:09:52.179Z,998.9
2022-12-08T18:12:52.190Z,998.9
2022-12-08T18:15:52.187Z,998.9
2022-12-08T18:18:52.311Z,998.9
2022-12-08T18:21:52.193Z,998.8
2022-12-08T18:24:52.195Z,998.8
2022-12-08T18:27:52.205Z,998.8
2022-12-08T18:30:52.226Z,998.8
2022-12-08T18:33:52.224Z,998.8
2022-12-08T18:36:52.242Z,998.8
2022-12-08T18:39:52.291Z,998.8
2022-12-08T18:42:52.228Z,998.9
2022-12-08T18:45:52.244Z,998.9
2022-12-08T18:48:52.238Z,998.9
2022-12-08T18:51:52.313Z,998.8
2022-12-08T18:55:08.028Z,998.8
2022-12-08T18:57:52.258Z,998.8
2022-12-08T19:00:52.251Z,999
2022-12-08T19:04:19.671Z,999
2022-12-08T19:06:52.262Z,999
2022-12-08T19:09:52.274Z,999
2022-12-08T19:12:52.303Z,999
2022-12-08T19:15:52.317Z,999
2022-12-08T19:18:52.274Z,999
2022-12-08T19:21:52.287Z,999.1
2022-12-08T19:24:52.288Z,999
2022-12-08T19:27:52.300Z,999.1
2022-12-08T19:30:52.384Z,999.1
2022-12-08T19:33:52.305Z,999.2
2022-12-08T19:36:52.317Z,999.2
2022-12-08T19:39:52.316Z,999.2
2022-12-08T19:42:52.322Z,999.2
2022-12-08T19:45:52.436Z,999.2
2022-12-08T19:48:52.344Z,999.2
2022-12-08T19:51:52.323Z,999.2
2022-12-08T19:54:52.322Z,999.2
2022-12-08T19:57:52.329Z,999.1
2022-12-08T20:00:52.348Z,999.2
2022-12-08T20:03:52.351Z,999.2
2022-12-08T20:06:52.466Z,999.2
2022-12-08T20:09:52.359Z,999.2
2022-12-08T20:12:52.357Z,999.2
2022-12-08T20:15:52.447Z,999.2
2022-12-08T20:18:52.387Z,999.3
2022-12-08T20:21:52.366Z,999.3
2022-12-08T20:25:11.110Z,999.4
2022-12-08T20:27:52.395Z,999.4
2022-12-08T20:30:52.473Z,999.5
2022-12-08T20:33:52.418Z,999.4
2022-12-08T20:36:52.412Z,999.4
2022-12-08T20:39:52.395Z,999.4
2022-12-08T20:42:52.424Z,999.4
2022-12-08T20:45:52.404Z,999.4
2022-12-08T20:48:52.497Z,999.4
2022-12-08T20:51:52.422Z,999.4
2022-12-08T20:54:52.477Z,999.4
2022-12-08T20:57:52.573Z,999.4
2022-12-08T21:00:52.736Z,999.3
2022-12-08T21:03:52.727Z,999.4
2022-12-08T21:06:52.512Z,999.4
2022-12-08T21:09:52.570Z,999.5
2022-12-08T21:12:52.590Z,999.4
2022-12-08T21:15:52.558Z,999.5
2022-12-08T21:18:52.670Z,999.6
2022-12-08T21:21:52.534Z,999.4
2022-12-08T21:24:52.466Z,999.4
2022-12-08T21:27:52.592Z,999.4
2022-12-08T21:30:52.689Z,999.5
2022-12-08T21:33:52.589Z,999.5
2022-12-08T21:36:52.561Z,999.5
2022-12-08T21:39:52.560Z,999.5
2022-12-08T21:42:52.493Z,999.5
2022-12-08T21:45:52.682Z,999.5
2022-12-08T21:48:52.611Z,999.5
2022-12-08T21:51:52.543Z,999.5
2022-12-08T21:54:52.726Z,999.4
2022-12-08T21:57:52.558Z,999.5
2022-12-08T22:00:52.605Z,999.5
2022-12-08T22:03:52.787Z,999.5
2022-12-08T22:06:52.670Z,999.5
2022-12-08T22:09:52.755Z,999.5
2022-12-08T22:12:52.689Z,999.5
2022-12-08T22:15:52.620Z,999.5
2022-12-08T22:18:52.571Z,999.5
2022-12-08T22:21:52.557Z,999.5
2022-12-08T22:24:52.730Z,999.5
2022-12-08T22:27:52.775Z,999.5
2022-12-08T22:30:52.610Z,999.5
2022-12-08T22:33:52.576Z,999.4
2022-12-08T22:36:52.628Z,999.5
2022-12-08T22:39:52.748Z,999.6
2022-12-08T22:42:52.768Z,999.5
2022-12-08T22:45:52.674Z,999.6
2022-12-08T22:48:52.621Z,999.6
2022-12-08T22:51:52.608Z,999.6
2022-12-08T22:54:52.605Z,999.6
2022-12-08T22:57:52.823Z,999.6
2022-12-08T23:00:52.627Z,999.6
2022-12-08T23:03:52.819Z,999.6
2022-12-08T23:06:52.655Z,999.6
2022-12-08T23:09:52.818Z,999.6
2022-12-08T23:12:52.861Z,999.6
2022-12-08T23:15:52.647Z,999.7
2022-12-08T23:18:52.721Z,999.6
2022-12-08T23:21:52.672Z,999.6
2022-12-08T23:24:52.699Z,999.6
2022-12-08T23:27:52.655Z,999.6
2022-12-08T23:30:52.880Z,999.6
2022-12-08T23:33:52.906Z,999.6
2022-12-08T23:36:52.678Z,999.5
2022-12-08T23:39:52.878Z,999.5
2022-12-08T23:42:52.735Z,999.6
2022-12-08T23:45:52.899Z,999.5
2022-12-08T23:48:52.800Z,999.5
2022-12-08T23:51:52.920Z,999.6
2022-12-08T23:54:52.737Z,999.6
2022-12-08T23:57:52.890Z,999.5
